Aaron Joseph — WCV9877 — position and weather

sailwx.info

Track history (hours):
 
Tides and Currents Weather Stations Pressure Air Temp Water Temp Dewpoint Dewpoint Depression Visibility Wind Speed Wind Dir Waves Ship Positions

Aaron Joseph

Owner: AARON JOSEPH INC, GOLDEN MEADOW, LA. More information available from US FCC via Universal Licensing System and Coast Guard Vessel Documentation Center.

Last reported at 2017-Feb-18 21:19 UTC. Time now 2017-Feb-20 11:22 UTC.
Position N 29°35' W 090°36'.

; draft 2.5 m.

Type: Tug. MMSI: 367028680.

Date/timePositionNaut miles runAvg speedWind from/ knotsBaromVisibWave heightAir tempDewpointWater temp
2017-Feb-18 21:19N 29°35' W 090°36'0 0.0
2017-Feb-18 16:13N 29°35' W 090°36'0 0.0
2017-Feb-18 09:26N 29°35' W 090°36'0 0.0
2017-Feb-18 08:32N 29°35' W 090°36'0 0.0
2017-Feb-17 23:24N 29°35' W 090°36'0 0.0
2017-Feb-17 22:30N 29°35' W 090°36'0 0.0
2017-Feb-17 21:20N 29°35' W 090°36'0 0.0
2017-Feb-17 16:33N 29°35' W 090°36'0 0.0
2017-Feb-17 15:33N 29°35' W 090°36'0 0.0
2017-Feb-17 14:29N 29°35' W 090°36'0 0.0
2017-Feb-17 13:24N 29°35' W 090°36'0 0.0
2017-Feb-17 12:29N 29°35' W 090°36'0 0.0
2017-Feb-17 11:33N 29°35' W 090°36'0 0.0
2017-Feb-17 10:23N 29°35' W 090°36'0 0.0
2017-Feb-17 08:07N 29°35' W 090°36'0 0.0
2017-Feb-17 07:29N 29°35' W 090°36'0 0.0
2017-Feb-17 06:32N 29°35' W 090°36'0 0.0
2017-Feb-17 05:19N 29°35' W 090°36'0 0.0
2017-Feb-17 04:28N 29°35' W 090°36'0 0.0
2017-Feb-16 20:29N 29°35' W 090°36'5 5.2
2017-Feb-16 19:33N 29°36' W 090°41'3 2.8
2017-Feb-16 18:33N 29°34' W 090°43'0 0.4
2017-Feb-16 17:33N 29°34' W 090°43'3 2.6
2017-Feb-16 16:33N 29°37' W 090°41'4 3.6
2017-Feb-16 15:33N 29°35' W 090°38'2 1.6
2017-Feb-16 14:33N 29°35' W 090°36'0 0.1
2017-Feb-16 13:33N 29°35' W 090°36'0 0.0
2017-Feb-16 12:33N 29°35' W 090°36'0 0.0
2017-Feb-16 11:33N 29°35' W 090°36'0 0.0
2017-Feb-16 10:33N 29°35' W 090°36'0 0.0
2017-Feb-16 09:28N 29°35' W 090°36'0 0.0
2017-Feb-16 08:30N 29°35' W 090°36'0 0.0
2017-Feb-16 07:33N 29°35' W 090°36'0 0.0
2017-Feb-16 06:33N 29°35' W 090°36'0 0.0
2017-Feb-16 05:32N 29°35' W 090°36'0 0.0
2017-Feb-16 04:31N 29°35' W 090°36'0 0.0
2017-Feb-16 03:33N 29°35' W 090°36'0 0.0
2017-Feb-16 02:33N 29°35' W 090°36'5 4.7
2017-Feb-16 01:33N 29°36' W 090°41'4 3.7
2017-Feb-16 00:33N 29°33' W 090°42'7 6.9
2017-Feb-15 23:33N 29°26' W 090°43'3 0.1
2017-Feb-14 01:28N 29°23' W 090°44'7 8.1
2017-Feb-14 00:33N 29°30' W 090°43'4 3.9
2017-Feb-13 23:33N 29°34' W 090°43'7 7.3
2017-Feb-13 22:33N 29°32' W 090°51'0 0.0
2017-Feb-12 02:13N 29°32' W 090°51'4 6.7
2017-Feb-12 01:33N 29°32' W 090°46'6 6.0
2017-Feb-12 00:33N 29°37' W 090°42'6 5.5
2017-Feb-11 23:33N 29°35' W 090°36'0 0.0
2017-Feb-11 22:33N 29°35' W 090°36'0 0.0
2017-Feb-11 19:16N 29°35' W 090°36'4 5.4
2017-Feb-11 18:33N 29°36' W 090°40'0 0.2
2017-Feb-11 17:33N 29°36' W 090°40'3 3.0
2017-Feb-11 16:33N 29°35' W 090°37'1 1.3
2017-Feb-11 15:33N 29°35' W 090°36'0 0.0
2017-Feb-11 14:33N 29°35' W 090°36'0 0.0
2017-Feb-11 13:33N 29°35' W 090°36'0 0.0
2017-Feb-11 12:33N 29°35' W 090°36'0 0.0
2017-Feb-11 11:33N 29°35' W 090°36'0 0.0
2017-Feb-11 10:26N 29°35' W 090°36'0 0.0
2017-Feb-11 09:31N 29°35' W 090°36'0 0.0
2017-Feb-11 08:19N 29°35' W 090°36'0 0.0
2017-Feb-11 07:33N 29°35' W 090°36'0 0.0
2017-Feb-11 06:33N 29°35' W 090°36'0 0.0
2017-Feb-11 00:32N 29°35' W 090°36'0 0.0
2017-Feb-10 23:32N 29°35' W 090°36'0 0.0
2017-Feb-10 22:32N 29°35' W 090°36'0 0.0
2017-Feb-10 21:30N 29°35' W 090°36'0 0.0
2017-Feb-10 20:33N 29°35' W 090°36'0 0.0
2017-Feb-10 19:33N 29°35' W 090°36'1 0.7
2017-Feb-10 18:33N 29°35' W 090°36'5 5.2
2017-Feb-10 17:33N 29°37' W 090°42'3 3.4
2017-Feb-10 16:33N 29°34' W 090°44'4 4.1
2017-Feb-10 15:33N 29°32' W 090°48'6 5.7
2017-Feb-10 14:33N 29°33' W 090°54'45 4.0
2017-Feb-10 03:30N 29°46' W 091°43'10 4.7
2017-Feb-10 01:27N 29°51' W 091°53'5 5.1
2017-Feb-10 00:33N 29°50' W 091°58'5 5.4
2017-Feb-09 23:33N 29°48' W 092°04'6 5.8
2017-Feb-09 22:33N 29°47' W 092°10'4 3.9
2017-Feb-09 21:33N 29°48' W 092°15'5 5.4
2017-Feb-09 20:33N 29°51' W 092°20'5 5.2
2017-Feb-09 19:33N 29°53' W 092°25'33 4.1
2017-Feb-09 11:24N 29°56' W 093°03'0 0.1
2017-Feb-09 10:22N 29°56' W 093°03'3 4.0
2017-Feb-09 09:33N 29°56' W 093°07'4 4.2
2017-Feb-09 08:33N 29°58' W 093°11'5 4.7
2017-Feb-09 07:33N 30°02' W 093°15'3 2.5
2017-Feb-09 06:33N 30°04' W 093°16'3 2.6
2017-Feb-09 05:33N 30°06' W 093°18'0 0.2
2017-Feb-09 04:33N 30°06' W 093°18'0 0.0
2017-Feb-09 03:33N 30°06' W 093°18'0 0.0
2017-Feb-09 02:33N 30°06' W 093°18'0 0.0
2017-Feb-09 01:33N 30°06' W 093°18'4 3.7
2017-Feb-09 00:33N 30°04' W 093°21'4 3.5
2017-Feb-08 23:33N 30°04' W 093°25'7 5.6
2017-Feb-08 22:21N 30°04' W 093°33'  
Track history (hours):
 
Tides and Currents Weather Stations Pressure Air Temp Water Temp Dewpoint Dewpoint Depression Visibility Wind Speed Wind Dir Waves Ship Positions

Aaron Joseph

Owner: AARON JOSEPH INC, GOLDEN MEADOW, LA. More information available from US FCC via Universal Licensing System and Coast Guard Vessel Documentation Center.

Last reported at 2017-Feb-18 21:19 UTC. Time now 2017-Feb-20 11:22 UTC.
Position N 29°35' W 090°36'.

; draft 2.5 m.

Type: Tug. MMSI: 367028680.

Date/timePositionNaut miles runAvg speedWind from/ knotsBaromVisibWave heightAir tempDewpointWater temp
2017-Feb-18 21:19N 29°35' W 090°36'0 0.0
2017-Feb-18 16:13N 29°35' W 090°36'0 0.0
2017-Feb-18 09:26N 29°35' W 090°36'0 0.0
2017-Feb-18 08:32N 29°35' W 090°36'0 0.0
2017-Feb-17 23:24N 29°35' W 090°36'0 0.0
2017-Feb-17 22:30N 29°35' W 090°36'0 0.0
2017-Feb-17 21:20N 29°35' W 090°36'0 0.0
2017-Feb-17 16:33N 29°35' W 090°36'0 0.0
2017-Feb-17 15:33N 29°35' W 090°36'0 0.0
2017-Feb-17 14:29N 29°35' W 090°36'0 0.0
2017-Feb-17 13:24N 29°35' W 090°36'0 0.0
2017-Feb-17 12:29N 29°35' W 090°36'0 0.0
2017-Feb-17 11:33N 29°35' W 090°36'0 0.0
2017-Feb-17 10:23N 29°35' W 090°36'0 0.0
2017-Feb-17 08:07N 29°35' W 090°36'0 0.0
2017-Feb-17 07:29N 29°35' W 090°36'0 0.0
2017-Feb-17 06:32N 29°35' W 090°36'0 0.0
2017-Feb-17 05:19N 29°35' W 090°36'0 0.0
2017-Feb-17 04:28N 29°35' W 090°36'0 0.0
2017-Feb-16 20:29N 29°35' W 090°36'5 5.2
2017-Feb-16 19:33N 29°36' W 090°41'3 2.8
2017-Feb-16 18:33N 29°34' W 090°43'0 0.4
2017-Feb-16 17:33N 29°34' W 090°43'3 2.6
2017-Feb-16 16:33N 29°37' W 090°41'4 3.6
2017-Feb-16 15:33N 29°35' W 090°38'2 1.6
2017-Feb-16 14:33N 29°35' W 090°36'0 0.1
2017-Feb-16 13:33N 29°35' W 090°36'0 0.0
2017-Feb-16 12:33N 29°35' W 090°36'0 0.0
2017-Feb-16 11:33N 29°35' W 090°36'0 0.0
2017-Feb-16 10:33N 29°35' W 090°36'0 0.0
2017-Feb-16 09:28N 29°35' W 090°36'0 0.0
2017-Feb-16 08:30N 29°35' W 090°36'0 0.0
2017-Feb-16 07:33N 29°35' W 090°36'0 0.0
2017-Feb-16 06:33N 29°35' W 090°36'0 0.0
2017-Feb-16 05:32N 29°35' W 090°36'0 0.0
2017-Feb-16 04:31N 29°35' W 090°36'0 0.0
2017-Feb-16 03:33N 29°35' W 090°36'0 0.0
2017-Feb-16 02:33N 29°35' W 090°36'5 4.7
2017-Feb-16 01:33N 29°36' W 090°41'4 3.7
2017-Feb-16 00:33N 29°33' W 090°42'7 6.9
2017-Feb-15 23:33N 29°26' W 090°43'3 0.1
2017-Feb-14 01:28N 29°23' W 090°44'7 8.1
2017-Feb-14 00:33N 29°30' W 090°43'4 3.9
2017-Feb-13 23:33N 29°34' W 090°43'7 7.3
2017-Feb-13 22:33N 29°32' W 090°51'0 0.0
2017-Feb-12 02:13N 29°32' W 090°51'4 6.7
2017-Feb-12 01:33N 29°32' W 090°46'6 6.0
2017-Feb-12 00:33N 29°37' W 090°42'6 5.5
2017-Feb-11 23:33N 29°35' W 090°36'0 0.0
2017-Feb-11 22:33N 29°35' W 090°36'0 0.0
2017-Feb-11 19:16N 29°35' W 090°36'4 5.4
2017-Feb-11 18:33N 29°36' W 090°40'0 0.2
2017-Feb-11 17:33N 29°36' W 090°40'3 3.0
2017-Feb-11 16:33N 29°35' W 090°37'1 1.3
2017-Feb-11 15:33N 29°35' W 090°36'0 0.0
2017-Feb-11 14:33N 29°35' W 090°36'0 0.0
2017-Feb-11 13:33N 29°35' W 090°36'0 0.0
2017-Feb-11 12:33N 29°35' W 090°36'0 0.0
2017-Feb-11 11:33N 29°35' W 090°36'0 0.0
2017-Feb-11 10:26N 29°35' W 090°36'0 0.0
2017-Feb-11 09:31N 29°35' W 090°36'0 0.0
2017-Feb-11 08:19N 29°35' W 090°36'0 0.0
2017-Feb-11 07:33N 29°35' W 090°36'0 0.0
2017-Feb-11 06:33N 29°35' W 090°36'0 0.0
2017-Feb-11 00:32N 29°35' W 090°36'0 0.0
2017-Feb-10 23:32N 29°35' W 090°36'0 0.0
2017-Feb-10 22:32N 29°35' W 090°36'0 0.0
2017-Feb-10 21:30N 29°35' W 090°36'0 0.0
2017-Feb-10 20:33N 29°35' W 090°36'0 0.0
2017-Feb-10 19:33N 29°35' W 090°36'1 0.7
2017-Feb-10 18:33N 29°35' W 090°36'5 5.2
2017-Feb-10 17:33N 29°37' W 090°42'3 3.4
2017-Feb-10 16:33N 29°34' W 090°44'4 4.1
2017-Feb-10 15:33N 29°32' W 090°48'6 5.7
2017-Feb-10 14:33N 29°33' W 090°54'45 4.0
2017-Feb-10 03:30N 29°46' W 091°43'10 4.7
2017-Feb-10 01:27N 29°51' W 091°53'5 5.1
2017-Feb-10 00:33N 29°50' W 091°58'5 5.4
2017-Feb-09 23:33N 29°48' W 092°04'6 5.8
2017-Feb-09 22:33N 29°47' W 092°10'4 3.9
2017-Feb-09 21:33N 29°48' W 092°15'5 5.4
2017-Feb-09 20:33N 29°51' W 092°20'5 5.2
2017-Feb-09 19:33N 29°53' W 092°25'33 4.1
2017-Feb-09 11:24N 29°56' W 093°03'0 0.1
2017-Feb-09 10:22N 29°56' W 093°03'3 4.0
2017-Feb-09 09:33N 29°56' W 093°07'4 4.2
2017-Feb-09 08:33N 29°58' W 093°11'5 4.7
2017-Feb-09 07:33N 30°02' W 093°15'3 2.5
2017-Feb-09 06:33N 30°04' W 093°16'3 2.6
2017-Feb-09 05:33N 30°06' W 093°18'0 0.2
2017-Feb-09 04:33N 30°06' W 093°18'0 0.0
2017-Feb-09 03:33N 30°06' W 093°18'0 0.0
2017-Feb-09 02:33N 30°06' W 093°18'0 0.0
2017-Feb-09 01:33N 30°06' W 093°18'4 3.7
2017-Feb-09 00:33N 30°04' W 093°21'4 3.5
2017-Feb-08 23:33N 30°04' W 093°25'7 5.6
2017-Feb-08 22:21N 30°04' W 093°33'  

Dump ship's entire track history